Iowa City, IA

2:01 PM CST on February 23, 2017 (GMT -0600)
NE Iowa City | | Change Station
Active Advisory: Flood Watch Active Notice: Flood Watch

Elev 755 ft 41.71 °N, 91.48 °W | Updated 8 seconds ago

Mostly Cloudy
Mostly Cloudy
44.0 °F
Feels Like 44 °F
N
3.0
Wind Variable Wind from ENE

Today
High -- | Low -- °F
--% Chance of Precip.
Yesterday
High -- | Low -- °F
Precip. -- in
Pressure 29.74 in
Visibility 10.0 miles
Clouds Mostly Cloudy 7000 ft
Overcast 9000 ft
Windchill 44 °F
Dew Point 41 °F
Humidity 88%
Rainfall 0.00 in
Snow Depth Not available.
6:49 AM 5:49 PM
Waning Crescent, 9% visible
METAR KIOW 231952Z AUTO 10007KT 10SM BKN070 OVC090 08/04 A2973 RMK AO2 RAB09E20 SLP069 P0000 T00830039
Pressure 29.74 in
Visibility 10.0 miles
Clouds Mostly Cloudy 7000 ft
Overcast 9000 ft
Windchill 44 °F
Dew Point 41 °F
Humidity 88%
Rainfall 0.00 in
Snow Depth Not available.
6:49 AM 5:49 PM
Waning Crescent, 9% visible
METAR KIOW 231952Z AUTO 10007KT 10SM BKN070 OVC090 08/04 A2973 RMK AO2 RAB09E20 SLP069 P0000 T00830039

Get Your Daily Forecast Email!

Thanks for signing up!

Be on the lookout for a verification email in your inbox.

You'll start receiving the daily forecast at 8 AM.

×

10-Day Weather Forecast

Almanac

Astronomy

Feb. 23, 2017 Rise Set
Actual Time
Civil Twilight
Nautical Twilight
Astronomical Twilight
Moon
Length of Visible Light
Length of Day
Tomorrow will be .
, % of the Moon is Illuminated

Today's Extremes

State Highs State Lows

Community

WunderPhotos

Upload Photos

1,962,540 photos uploaded!

WunderBlog® & News

Nearby

Air Quality

  Air Quality AQ Index Pollutant
Not available.

Snow Depth

Station Depth Elevation

Earthquake Activity

City Distance Mag. Time & Date
Minimum magnitude displayed is 2.5.

Coastal Water Temperatures

Place Temperature

Stations

Nearby Weather Stations

Station Location Temp. Windchill Dew Point Humidity Wind Precip. Elev Updated Type
                   

Watches & Warnings

Flood Watch
Issued: 10:52 AM CST Feb. 23, 2017 – National Weather Service

The Flood Watch continues for
the Iowa river at Marengo
* until further notice.
* At 10:00 am Thursday the stage was 11.2 feet.
* Flood stage is 14.0 feet.
* Minor flooding is possible.
* Forecast... rise above flood stage Saturday... and continue rising to
15.3 feet Wednesday morning.
* This forecast is based on routed flow from upstream in combination
with forecast rainfall. Consequently there is limited confidence
in the river reaching flood stage.


Lat... Lon 4182 9230 4176 9197 4175 9183 4182 9183
      4187 9230